Time;durP1;ratioP1;P1;durP2;ratioP2;P2;SDS_P1;SDS_P2;PMS_P1;PMS_P2;Temp;Humidity;BMP_temperature;BMP_pressure;BME280_temperature;BME280_humidity;BME280_pressure;Samples;Min_cycle;Max_cycle;Signal;HPM_P1;HPM_P2
2022/02/08 00:00:03;;;;;;;10.95;2.10;;;2.80;98.50;;;;;;4975911;28;20054;-82
2022/02/08 05:26:57;;;;;;;4.57;1.20;;;4.20;95.90;;;;;;4995843;28;20066;-84
2022/02/08 05:43:21;;;;;;;7.90;1.40;;;4.30;95.60;;;;;;4994725;28;20051;-83
2022/02/08 05:46:06;;;;;;;7.78;1.60;;;4.40;95.60;;;;;;4993806;28;20110;-85
2022/02/08 05:48:34;;;;;;;5.97;1.33;;;4.40;95.60;;;;;;4993502;28;20057;-86
2022/02/08 05:51:03;;;;;;;8.02;1.45;;;4.40;95.70;;;;;;4994607;28;20119;-84
2022/02/08 05:53:41;;;;;;;9.15;1.92;;;4.50;95.70;;;;;;4992969;28;20051;-85
2022/02/08 05:56:09;;;;;;;6.53;1.30;;;4.50;95.60;;;;;;4982640;28;20523;-85
2022/02/08 05:58:36;;;;;;;8.95;1.58;;;4.50;95.50;;;;;;4979927;28;20489;-85
2022/02/08 06:01:04;;;;;;;5.07;1.55;;;4.50;95.40;;;;;;4995680;28;20055;-86
2022/02/08 06:03:31;;;;;;;9.68;1.50;;;4.60;95.60;;;;;;4994582;28;20047;-82
2022/02/08 06:05:58;;;;;;;8.88;1.80;;;4.60;95.40;;;;;;4995709;28;20070;-84
2022/02/08 06:08:27;;;;;;;5.38;1.50;;;4.60;95.30;;;;;;4993727;28;20058;-85
2022/02/08 06:11:00;;;;;;;9.07;1.90;;;4.60;95.30;;;;;;4994700;28;20078;-86
2022/02/08 06:13:27;;;;;;;6.93;1.60;;;4.60;95.30;;;;;;4989895;28;20102;-85
2022/02/08 06:16:01;;;;;;;6.50;1.45;;;4.60;95.40;;;;;;4992803;28;20081;-84
2022/02/08 06:18:29;;;;;;;5.70;1.40;;;4.60;95.40;;;;;;4986131;28;20085;-84
2022/02/08 06:20:56;;;;;;;7.10;1.50;;;4.60;95.50;;;;;;4986242;28;20054;-86
2022/02/08 06:23:24;;;;;;;9.98;1.65;;;4.60;95.50;;;;;;4985444;28;20047;-85
2022/02/08 06:25:52;;;;;;;8.00;1.63;;;4.60;95.60;;;;;;4987921;28;20373;-84
2022/02/08 06:28:22;;;;;;;5.18;1.50;;;4.70;95.60;;;;;;4983857;28;20054;-85
2022/02/08 06:30:50;;;;;;;11.07;2.65;;;4.70;95.70;;;;;;4994683;28;20075;-85
2022/02/08 06:33:17;;;;;;;8.23;1.83;;;4.70;95.60;;;;;;4992884;28;20058;-85
2022/02/08 06:35:45;;;;;;;8.18;1.70;;;4.70;95.70;;;;;;4993654;28;20058;-84
2022/02/08 06:38:15;;;;;;;7.57;1.77;;;4.70;95.70;;;;;;4994563;28;20047;-85
2022/02/08 06:40:44;;;;;;;10.90;2.05;;;4.80;95.80;;;;;;4993232;28;20107;-85
2022/02/08 06:43:13;;;;;;;6.25;1.60;;;4.80;95.90;;;;;;4993096;28;20058;-88
2022/02/08 06:45:40;;;;;;;6.85;1.45;;;4.80;95.90;;;;;;4977887;28;20070;-87
2022/02/08 06:48:09;;;;;;;6.43;1.50;;;4.80;96.00;;;;;;4994014;28;20142;-86
2022/02/08 06:50:37;;;;;;;9.40;1.60;;;4.90;96.10;;;;;;4996512;28;20054;-86
2022/02/08 06:53:05;;;;;;;7.35;1.70;;;4.90;96.10;;;;;;4998198;28;20051;-85
2022/02/08 06:55:32;;;;;;;8.98;1.55;;;4.90;96.20;;;;;;4995094;28;20074;-86
2022/02/08 06:58:03;;;;;;;7.65;1.60;;;4.90;96.30;;;;;;4993404;28;20051;-85
2022/02/08 07:00:36;;;;;;;9.52;1.60;;;4.90;96.50;;;;;;4977722;28;20059;-84
2022/02/08 07:03:05;;;;;;;5.82;1.77;;;4.90;96.40;;;;;;4970678;29;20055;-86
2022/02/08 07:05:32;;;;;;;6.32;2.00;;;4.90;96.50;;;;;;4961326;29;20082;-85
2022/02/08 07:07:59;;;;;;;8.77;1.60;;;5.00;96.50;;;;;;4959609;29;20130;-85
2022/02/08 07:10:28;;;;;;;9.40;1.70;;;5.00;96.50;;;;;;4967122;29;20135;-84
2022/02/08 07:12:55;;;;;;;8.65;1.73;;;5.00;96.60;;;;;;4970933;29;20059;-84
2022/02/08 07:15:23;;;;;;;12.25;1.90;;;5.00;96.60;;;;;;4973459;29;20054;-84
2022/02/08 07:17:51;;;;;;;10.07;2.00;;;5.00;96.50;;;;;;4952606;29;20051;-83
2022/02/08 07:20:19;;;;;;;7.28;2.10;;;5.10;96.60;;;;;;4960333;29;20051;-84
2022/02/08 07:22:47;;;;;;;9.20;1.60;;;5.10;96.60;;;;;;4959603;29;20138;-84
2022/02/08 07:25:15;;;;;;;10.57;1.90;;;5.10;96.60;;;;;;4961609;29;20134;-85
2022/02/08 07:27:43;;;;;;;9.48;2.13;;;5.10;96.50;;;;;;4960697;29;20079;-84
2022/02/08 07:30:13;;;;;;;9.27;1.90;;;5.10;96.50;;;;;;4959510;29;20090;-83
2022/02/08 07:32:45;;;;;;;9.43;1.92;;;5.10;96.50;;;;;;4959595;29;20058;-85
2022/02/08 07:35:28;;;;;;;9.07;1.80;;;5.20;96.50;;;;;;4959895;29;20445;-85
2022/02/08 07:38:03;;;;;;;7.53;2.15;;;5.20;96.50;;;;;;4959373;29;20055;-85
2022/02/08 07:41:34;;;;;;;10.45;2.10;;;5.20;96.30;;;;;;4959457;29;20090;-85
2022/02/08 07:43:28;;;;;;;9.88;2.42;;;5.20;96.20;;;;;;4959137;29;20051;-86
2022/02/08 07:45:56;;;;;;;8.07;2.42;;;5.20;96.20;;;;;;4958852;28;20138;-84
2022/02/08 07:48:23;;;;;;;13.00;2.13;;;5.20;96.30;;;;;;4958741;29;20054;-85
2022/02/08 07:50:52;;;;;;;8.73;2.13;;;5.30;96.30;;;;;;4958871;29;20667;-86
2022/02/08 07:53:26;;;;;;;8.00;1.85;;;5.30;96.20;;;;;;4958682;29;20047;-84
2022/02/08 07:55:54;;;;;;;13.05;2.55;;;5.30;96.10;;;;;;4942426;29;20056;-84
2022/02/08 07:58:21;;;;;;;9.05;2.00;;;5.40;95.90;;;;;;4958556;29;20111;-85
2022/02/08 08:00:48;;;;;;;9.20;1.90;;;5.40;95.80;;;;;;4956951;28;20142;-85
2022/02/08 08:03:15;;;;;;;10.38;2.00;;;5.50;95.60;;;;;;4973719;28;20114;-84
2022/02/08 08:05:42;;;;;;;12.55;2.58;;;5.50;95.50;;;;;;4977925;28;20089;-85
2022/02/08 08:08:14;;;;;;;10.98;2.40;;;5.60;95.40;;;;;;4979728;28;20481;-86
2022/02/08 08:10:45;;;;;;;8.30;2.20;;;5.60;95.20;;;;;;4987590;28;20050;-86
2022/02/08 08:13:16;;;;;;;8.63;2.17;;;5.60;95.00;;;;;;4978412;28;20109;-84
2022/02/08 08:15:48;;;;;;;11.48;2.25;;;5.70;94.90;;;;;;4977808;28;20154;-85
2022/02/08 08:18:38;;;;;;;8.45;1.65;;;5.70;94.80;;;;;;4960476;28;20046;-87
2022/02/08 08:21:05;;;;;;;6.55;1.98;;;5.80;94.60;;;;;;4977781;28;20050;-86
2022/02/08 08:23:33;;;;;;;9.13;1.52;;;5.80;94.40;;;;;;4977780;28;20053;-85
2022/02/08 08:26:00;;;;;;;8.50;2.25;;;5.80;94.50;;;;;;4982407;28;20058;-86
2022/02/08 08:28:28;;;;;;;9.15;2.00;;;5.90;94.40;;;;;;4982837;28;20505;-86
2022/02/08 08:30:56;;;;;;;9.30;2.92;;;5.90;94.20;;;;;;4977423;28;20085;-86
2022/02/08 08:33:24;;;;;;;7.53;1.80;;;5.90;94.40;;;;;;4977555;28;20082;-85
2022/02/08 08:35:51;;;;;;;7.93;1.85;;;5.90;94.10;;;;;;4977251;28;20568;-85
2022/02/08 08:38:19;;;;;;;10.60;2.50;;;6.00;94.00;;;;;;4986037;28;20062;-85
2022/02/08 08:40:56;;;;;;;8.75;1.80;;;6.00;94.00;;;;;;4977930;28;20051;-85
2022/02/08 08:43:40;;;;;;;8.30;1.92;;;6.00;93.80;;;;;;4978435;28;20187;-86
2022/02/08 08:49:24;;;;;;;9.48;1.83;;;6.10;93.70;;;;;;4962139;29;20110;-84
2022/02/08 08:51:53;;;;;;;10.43;2.33;;;6.10;93.70;;;;;;4959552;28;20448;-85
2022/02/08 08:54:21;;;;;;;10.90;2.13;;;6.20;93.60;;;;;;4977168;28;20066;-84
2022/02/08 08:56:52;;;;;;;11.07;2.22;;;6.20;93.50;;;;;;4977937;28;20485;-83
2022/02/08 08:59:20;;;;;;;10.90;2.60;;;6.20;93.40;;;;;;4980488;28;20082;-85
2022/02/08 09:01:49;;;;;;;9.00;2.50;;;6.30;93.30;;;;;;4998913;28;20145;-85
2022/02/08 09:04:19;;;;;;;7.90;1.80;;;6.30;93.30;;;;;;4999796;28;20050;-85
2022/02/08 09:06:49;;;;;;;7.97;2.10;;;6.30;93.30;;;;;;5000352;28;20058;-85
2022/02/08 09:09:20;;;;;;;12.57;2.42;;;6.40;93.30;;;;;;5002929;28;20057;-84
2022/02/08 09:11:58;;;;;;;9.55;2.08;;;6.40;93.20;;;;;;4999888;28;20058;-85
2022/02/08 09:14:40;;;;;;;5.45;2.00;;;6.40;92.90;;;;;;5000089;28;20054;-83
2022/02/08 09:17:39;;;;;;;6.93;1.70;;;6.50;92.70;;;;;;5000392;28;20046;-86
2022/02/08 09:20:28;;;;;;;9.00;1.85;;;6.50;92.60;;;;;;4999832;28;20054;-84
2022/02/08 09:23:21;;;;;;;9.88;2.10;;;6.60;92.50;;;;;;4998706;28;20113;-86
2022/02/08 09:28:40;;;;;;;7.90;1.70;;;6.70;91.60;;;;;;4997422;28;20113;-85
2022/02/08 09:31:15;;;;;;;10.20;1.88;;;6.80;90.80;;;;;;5000894;28;20046;-87
2022/02/08 09:33:42;;;;;;;7.03;1.95;;;6.80;90.60;;;;;;5000653;28;20046;-86
2022/02/08 09:36:09;;;;;;;7.30;1.70;;;6.80;90.20;;;;;;5001446;28;20065;-86
2022/02/08 09:38:37;;;;;;;5.90;1.40;;;6.90;89.80;;;;;;5002015;28;20054;-86
2022/02/08 09:41:04;;;;;;;5.07;1.75;;;6.90;89.20;;;;;;5000713;28;20046;-87
2022/02/08 09:43:33;;;;;;;7.13;1.60;;;6.90;88.40;;;;;;5000853;28;20539;-87
2022/02/08 09:46:04;;;;;;;5.18;1.38;;;6.90;86.70;;;;;;5000370;28;20046;-87
2022/02/08 09:48:40;;;;;;;7.00;1.63;;;6.90;86.90;;;;;;4983367;28;20053;-87
2022/02/08 09:51:08;;;;;;;4.75;1.52;;;7.00;85.90;;;;;;5000620;28;20077;-89
2022/02/08 09:53:36;;;;;;;5.30;1.50;;;7.00;84.50;;;;;;5008656;28;20054;-88
2022/02/08 09:56:05;;;;;;;9.77;1.77;;;7.00;83.90;;;;;;5006926;28;20081;-87
2022/02/08 09:58:33;;;;;;;6.13;1.58;;;7.10;83.50;;;;;;5006712;28;20080;-88
2022/02/08 10:01:09;;;;;;;6.57;1.50;;;7.10;80.70;;;;;;5001643;28;20058;-84
2022/02/08 10:03:51;;;;;;;7.60;2.03;;;7.20;81.80;;;;;;5002240;28;20078;-86
2022/02/08 10:06:19;;;;;;;8.10;1.80;;;7.30;80.30;;;;;;5000822;28;20475;-85
2022/02/08 10:08:47;;;;;;;7.43;1.83;;;7.40;78.70;;;;;;5003050;28;20065;-86
2022/02/08 10:11:24;;;;;;;5.20;1.55;;;7.30;78.90;;;;;;5002443;28;20104;-85
2022/02/08 10:14:15;;;;;;;4.88;1.35;;;7.40;78.70;;;;;;5000098;28;20460;-84
2022/02/08 10:22:30;;;;;;;5.03;1.77;;;7.60;78.30;;;;;;4985725;28;20094;-86
2022/02/08 10:25:02;;;;;;;5.38;1.30;;;7.70;78.00;;;;;;4986766;28;20321;-86
2022/02/08 10:27:32;;;;;;;6.63;1.48;;;7.70;77.50;;;;;;4998097;28;20078;-84
2022/02/08 10:30:26;;;;;;;6.30;1.50;;;7.80;77.50;;;;;;4990477;28;20046;-86
2022/02/08 10:38:24;;;;;;;7.80;1.40;;;8.00;77.50;;;;;;5002646;28;19928;-85
2022/02/08 10:40:55;;;;;;;5.57;1.70;;;8.00;78.00;;;;;;5003318;28;20065;-86
2022/02/08 10:43:23;;;;;;;6.15;1.27;;;8.10;77.20;;;;;;5007431;28;20046;-85
2022/02/08 10:45:50;;;;;;;6.28;1.10;;;8.10;77.50;;;;;;4995423;28;20042;-86
2022/02/08 10:48:22;;;;;;;6.47;1.40;;;8.20;77.40;;;;;;5008377;28;20093;-87
2022/02/08 10:50:55;;;;;;;3.63;1.00;;;8.30;76.80;;;;;;5008619;28;20054;-86
2022/02/08 10:53:25;;;;;;;4.75;1.45;;;8.30;76.20;;;;;;5006190;28;20057;-85
2022/02/08 10:55:59;;;;;;;4.57;1.20;;;8.30;76.20;;;;;;5002438;28;20050;-83
2022/02/08 10:58:31;;;;;;;5.25;1.30;;;8.40;76.70;;;;;;5004592;28;20052;-85
2022/02/08 11:01:05;;;;;;;6.05;1.92;;;8.40;76.10;;;;;;5005760;28;20054;-83
2022/02/08 11:03:40;;;;;;;5.00;1.25;;;8.50;75.70;;;;;;5006163;28;20105;-84
2022/02/08 11:06:19;;;;;;;6.43;1.30;;;8.50;76.50;;;;;;5009478;28;20041;-87
2022/02/08 11:14:24;;;;;;;4.65;1.30;;;8.80;75.10;;;;;;4980997;28;20050;-85
2022/02/08 11:20:08;;;;;;;3.75;0.98;;;9.00;74.00;;;;;;4985545;28;20047;-85
2022/02/08 11:22:54;;;;;;;4.10;1.08;;;9.10;74.70;;;;;;4991235;28;20121;-86
2022/02/08 11:25:27;;;;;;;3.22;1.10;;;9.10;74.90;;;;;;4989521;28;20055;-84
2022/02/08 11:28:07;;;;;;;4.22;1.13;;;9.20;76.50;;;;;;4986231;28;20094;-87
2022/02/08 11:30:44;;;;;;;7.55;1.20;;;9.20;77.20;;;;;;4988817;28;20047;-89
2022/02/08 11:39:39;;;;;;;6.13;1.30;;;9.30;78.40;;;;;;5000045;28;20066;-87
2022/02/08 11:45:37;;;;;;;5.32;1.20;;;9.40;79.00;;;;;;5005263;28;20097;-84
2022/02/08 11:51:21;;;;;;;7.68;1.88;;;9.50;79.00;;;;;;4966222;28;20046;-85
2022/02/08 11:54:03;;;;;;;15.88;7.10;;;9.50;79.00;;;;;;5004566;28;20046;-85
2022/02/08 11:57:02;;;;;;;4.80;1.30;;;9.50;77.80;;;;;;5001591;28;20058;-84
2022/02/08 11:59:38;;;;;;;6.15;1.50;;;9.50;78.30;;;;;;5000962;28;20058;-86
2022/02/08 12:02:40;;;;;;;5.00;1.17;;;9.40;77.60;;;;;;5000912;28;20057;-85
2022/02/08 12:05:18;;;;;;;5.03;1.52;;;9.40;77.90;;;;;;4999776;28;20050;-82
2022/02/08 12:07:48;;;;;;;6.60;1.13;;;9.40;78.10;;;;;;4995943;28;20518;-82
2022/02/08 12:10:22;;;;;;;8.50;1.55;;;9.40;78.80;;;;;;5004742;28;20055;-80
2022/02/08 12:32:39;;;;;;;;;;;10.40;75.30;;;;;;4978111;28;20043;-83
2022/02/08 12:35:29;;;;;;;6.13;1.23;;;10.50;75.30;;;;;;4987113;28;19932;-80
2022/02/08 12:55:01;;;;;;;4.72;1.40;;;10.40;76.40;;;;;;4984999;28;20047;-81
2022/02/08 12:57:37;;;;;;;6.63;1.40;;;10.40;76.40;;;;;;4987110;28;20050;-81
2022/02/08 13:00:22;;;;;;;6.03;1.55;;;10.40;76.80;;;;;;4980728;28;20089;-82
2022/02/08 13:03:13;;;;;;;8.50;1.52;;;10.50;77.00;;;;;;4984990;28;20051;-80
2022/02/08 13:06:22;;;;;;;6.53;1.30;;;10.50;77.40;;;;;;4981805;28;20051;-82
2022/02/08 13:15:32;;;;;;;5.32;1.80;;;10.40;79.60;;;;;;4948018;28;20050;-82
2022/02/08 14:01:48;;;;;;;3.38;1.10;;;12.00;75.60;;;;;;5006906;28;19990;-81
2022/02/08 14:07:08;;;;;;;5.63;1.17;;;11.60;79.30;;;;;;5005813;28;20086;-84
2022/02/08 14:09:48;;;;;;;4.65;1.08;;;11.50;81.10;;;;;;4989416;28;20046;-88
2022/02/08 14:12:35;;;;;;;3.90;1.05;;;11.40;82.70;;;;;;5003941;28;20050;-87
2022/02/08 14:18:00;;;;;;;5.03;1.27;;;11.10;88.80;;;;;;4979705;28;20050;-88
2022/02/08 14:20:46;;;;;;;5.03;1.10;;;11.00;90.30;;;;;;5006828;28;20070;-87
2022/02/08 14:23:28;;;;;;;5.60;1.40;;;10.90;91.00;;;;;;4989570;28;20073;-85
2022/02/08 14:31:54;;;;;;;4.88;1.10;;;10.70;92.00;;;;;;5004623;28;20058;-87
2022/02/08 15:07:55;;;;;;;6.85;1.85;;;10.30;94.20;;;;;;5001090;28;20056;-88
2022/02/08 15:10:25;;;;;;;13.75;5.15;;;10.30;94.50;;;;;;4999351;28;20046;-89
2022/02/08 15:12:55;;;;;;;6.20;1.20;;;10.30;94.70;;;;;;4989221;28;20054;-85
2022/02/08 15:15:32;;;;;;;4.93;1.30;;;10.20;94.60;;;;;;4967144;28;20055;-89
2022/02/08 15:17:59;;;;;;;5.25;1.50;;;10.20;94.70;;;;;;4981709;28;20078;-86
2022/02/08 15:20:27;;;;;;;7.15;1.10;;;10.20;94.80;;;;;;4984177;28;20082;-87
2022/02/08 15:22:58;;;;;;;4.38;1.20;;;10.20;95.00;;;;;;4981965;28;20133;-86
2022/02/08 15:25:27;;;;;;;5.15;1.05;;;10.10;94.80;;;;;;4986013;28;20110;-87
2022/02/08 15:28:01;;;;;;;4.38;1.10;;;10.20;95.00;;;;;;4985239;28;20133;-86
2022/02/08 15:30:30;;;;;;;6.18;1.55;;;10.10;95.10;;;;;;4986794;28;20077;-87
2022/02/08 15:32:57;;;;;;;6.20;1.35;;;10.10;95.40;;;;;;5013332;28;20046;-85
2022/02/08 15:35:25;;;;;;;5.30;1.10;;;10.10;95.20;;;;;;5001694;28;20082;-87
2022/02/08 15:37:52;;;;;;;5.07;1.27;;;10.10;95.40;;;;;;4992660;28;20051;-86
2022/02/08 15:40:20;;;;;;;4.40;1.20;;;10.10;95.70;;;;;;4991927;28;20058;-87
2022/02/08 15:42:49;;;;;;;4.70;1.10;;;10.10;95.60;;;;;;4994228;28;20070;-85
2022/02/08 15:45:22;;;;;;;6.70;1.30;;;10.00;95.70;;;;;;4971058;28;20057;-86
2022/02/08 15:47:52;;;;;;;5.43;1.25;;;10.10;95.80;;;;;;4996229;28;20050;-85
2022/02/08 15:50:26;;;;;;;5.35;1.27;;;10.10;95.80;;;;;;4996408;28;20051;-85
2022/02/08 15:55:52;;;;;;;5.07;1.20;;;10.00;95.90;;;;;;4992516;28;20051;-82
2022/02/08 15:58:24;;;;;;;4.50;1.55;;;10.00;95.90;;;;;;4998847;28;20050;-82
2022/02/08 16:01:05;;;;;;;6.50;1.45;;;10.00;96.00;;;;;;4983696;28;20063;-80
2022/02/08 16:09:10;;;;;;;5.30;1.60;;;10.00;95.90;;;;;;4998778;28;20130;-80
2022/02/08 16:11:50;;;;;;;6.07;1.50;;;10.00;96.00;;;;;;4999217;28;20050;-79
2022/02/08 16:14:32;;;;;;;5.93;1.40;;;10.00;96.00;;;;;;4998824;28;20056;-81
2022/02/08 16:17:10;;;;;;;7.43;1.88;;;10.00;95.90;;;;;;4997891;28;20056;-82
2022/02/08 16:19:50;;;;;;;6.30;2.10;;;10.00;96.00;;;;;;4998423;28;20060;-80
2022/02/08 16:22:57;;;;;;;5.90;2.17;;;9.90;96.20;;;;;;4998160;28;20050;-81
2022/02/08 16:25:36;;;;;;;6.00;2.30;;;9.90;96.30;;;;;;4976739;28;20063;-78
2022/02/08 16:28:18;;;;;;;5.97;1.83;;;9.90;96.30;;;;;;4976890;28;20055;-79
2022/02/08 16:33:59;;;;;;;;;;;9.90;96.50;;;;;;4977222;28;20058;-78
2022/02/08 16:53:20;;;;;;;5.28;1.80;;;9.80;97.10;;;;;;4960191;28;20086;-79
2022/02/08 16:56:03;;;;;;;6.85;1.73;;;9.70;97.10;;;;;;4979123;28;20050;-79
2022/02/08 16:58:40;;;;;;;4.60;1.48;;;9.70;97.20;;;;;;4975792;28;20054;-78
2022/02/08 17:01:12;;;;;;;5.38;1.35;;;9.70;97.20;;;;;;4983128;28;20089;-79
2022/02/08 17:03:46;;;;;;;7.45;1.95;;;9.70;97.30;;;;;;4995366;28;20121;-76
2022/02/08 17:06:17;;;;;;;5.47;1.50;;;9.70;97.30;;;;;;4994411;28;20403;-79
2022/02/08 17:08:46;;;;;;;5.22;1.88;;;9.70;97.30;;;;;;4993845;28;20492;-78
2022/02/08 17:11:20;;;;;;;5.70;1.83;;;9.70;97.40;;;;;;4985424;28;20094;-79
2022/02/08 17:14:13;;;;;;;6.10;1.90;;;9.70;97.30;;;;;;4974207;28;20389;-77
2022/02/08 17:16:49;;;;;;;8.15;1.92;;;9.70;97.40;;;;;;4975044;28;20101;-79
2022/02/08 17:46:58;;;;;;;7.80;2.80;;;9.60;97.40;;;;;;4993660;28;20189;-83
2022/02/08 17:49:25;;;;;;;;;;;9.70;97.50;;;;;;4989506;28;20046;-84
2022/02/08 17:51:52;;;;;;;5.68;2.10;;;9.60;97.50;;;;;;4989043;28;20024;-86
2022/02/08 17:54:20;;;;;;;5.38;1.90;;;9.60;97.40;;;;;;4996854;28;20660;-84
2022/02/08 17:56:49;;;;;;;5.28;1.83;;;9.70;97.50;;;;;;4991677;28;20050;-84
2022/02/08 17:59:20;;;;;;;5.97;1.85;;;9.70;97.50;;;;;;4982922;28;20078;-83
2022/02/08 18:01:50;;;;;;;7.65;2.35;;;9.70;97.50;;;;;;4999819;28;20057;-84
2022/02/08 18:04:17;;;;;;;5.90;2.15;;;9.60;97.60;;;;;;4997664;28;20046;-82
2022/02/08 18:06:44;;;;;;;6.10;1.90;;;9.60;97.60;;;;;;4986591;28;20125;-82
2022/02/08 18:09:12;;;;;;;6.35;2.17;;;9.60;97.60;;;;;;4987281;28;20081;-82
2022/02/08 18:11:42;;;;;;;7.13;2.20;;;9.60;97.60;;;;;;4987865;28;20053;-83
2022/02/08 18:14:15;;;;;;;6.65;1.75;;;9.60;97.70;;;;;;5002057;28;20054;-81
2022/02/08 18:16:45;;;;;;;5.20;1.70;;;9.60;97.70;;;;;;5014174;28;20127;-81
2022/02/08 18:19:16;;;;;;;5.97;1.90;;;9.60;97.70;;;;;;5002624;28;20105;-84
2022/02/08 18:21:50;;;;;;;7.45;1.85;;;9.60;97.70;;;;;;4997502;28;20054;-82
2022/02/08 18:24:41;;;;;;;7.68;2.10;;;9.60;97.70;;;;;;5014583;28;20054;-83
2022/02/08 18:57:46;;;;;;;5.28;1.80;;;9.30;98.50;;;;;;4996882;28;20108;-79
2022/02/08 19:11:47;;;;;;;8.50;2.40;;;9.30;98.60;;;;;;4957064;28;20085;-82
2022/02/08 19:17:23;;;;;;;7.38;2.40;;;9.20;98.60;;;;;;4989922;28;20081;-82
2022/02/08 19:19:56;;;;;;;6.60;2.30;;;9.20;98.60;;;;;;4995871;28;20057;-83
2022/02/08 19:22:26;;;;;;;5.70;2.80;;;9.20;98.60;;;;;;4993656;28;20046;-83
2022/02/08 19:24:53;;;;;;;8.57;2.60;;;9.20;98.50;;;;;;5005277;28;20054;-81
2022/02/08 19:27:21;;;;;;;7.88;2.30;;;9.20;98.50;;;;;;4986900;28;20055;-81
2022/02/08 19:29:50;;;;;;;6.88;2.30;;;9.10;98.50;;;;;;4982019;28;20150;-82
2022/02/08 19:32:19;;;;;;;5.93;2.15;;;9.10;98.70;;;;;;4984200;28;20093;-81
2022/02/08 19:34:49;;;;;;;4.88;1.90;;;9.10;98.80;;;;;;4986413;28;20098;-81
2022/02/08 19:37:18;;;;;;;4.60;1.30;;;9.10;98.80;;;;;;4980698;28;20086;-87
2022/02/08 19:39:47;;;;;;;3.75;1.42;;;9.00;98.80;;;;;;4984520;28;20047;-84
2022/02/08 19:42:18;;;;;;;5.40;2.10;;;9.00;98.80;;;;;;4985263;28;20050;-82
2022/02/08 19:44:54;;;;;;;5.72;2.25;;;9.00;98.90;;;;;;4966360;28;20484;-83
2022/02/08 19:47:22;;;;;;;5.40;1.90;;;9.00;98.80;;;;;;4980007;28;20488;-83
2022/02/08 19:49:51;;;;;;;5.68;2.17;;;9.00;98.90;;;;;;4978609;28;20137;-84
2022/02/08 19:52:22;;;;;;;6.63;2.78;;;9.00;99.00;;;;;;4983257;28;20403;-82
2022/02/08 19:55:08;;;;;;;6.38;2.42;;;9.00;99.00;;;;;;4982625;28;20061;-84
2022/02/08 19:57:36;;;;;;;8.05;3.60;;;9.00;99.00;;;;;;4979845;28;20051;-83
2022/02/08 20:00:10;;;;;;;7.85;2.95;;;9.00;99.00;;;;;;4980644;28;20050;-83
2022/02/08 20:02:43;;;;;;;7.35;2.65;;;9.00;99.10;;;;;;4998859;28;20069;-84
2022/02/08 20:05:14;;;;;;;5.82;1.95;;;9.00;99.20;;;;;;4984283;28;20051;-83
2022/02/08 20:07:43;;;;;;;4.15;1.60;;;9.10;99.20;;;;;;5003343;28;20100;-85
2022/02/08 20:10:12;;;;;;;5.45;1.70;;;9.10;99.20;;;;;;5002625;28;20404;-82
2022/02/08 20:12:39;;;;;;;4.38;1.67;;;9.10;99.10;;;;;;5001946;28;20042;-79
2022/02/08 20:15:09;;;;;;;5.85;1.80;;;9.10;99.10;;;;;;4993087;28;20078;-81
2022/02/08 20:17:36;;;;;;;5.75;1.83;;;9.20;99.20;;;;;;4997053;28;20078;-85
2022/02/08 20:20:10;;;;;;;4.53;1.60;;;9.20;99.10;;;;;;4984191;28;20101;-82
2022/02/08 20:22:38;;;;;;;4.50;1.77;;;9.20;99.00;;;;;;4992677;28;20480;-80
2022/02/08 20:25:09;;;;;;;4.88;1.70;;;9.20;99.00;;;;;;4992268;28;20073;-80
2022/02/08 20:27:47;;;;;;;6.63;1.65;;;9.20;99.20;;;;;;4999955;28;20042;-81
2022/02/08 20:30:15;;;;;;;5.85;1.70;;;9.30;99.20;;;;;;5002322;28;20077;-79
2022/02/08 20:32:43;;;;;;;4.95;1.55;;;9.30;98.50;;;;;;5001163;28;20469;-80
2022/02/08 20:35:10;;;;;;;7.43;2.20;;;9.30;98.20;;;;;;4998005;28;20107;-84
2022/02/08 20:37:41;;;;;;;6.20;2.00;;;9.40;98.30;;;;;;4986939;28;20062;-83
2022/02/08 20:40:13;;;;;;;4.15;1.80;;;9.40;98.50;;;;;;4966744;28;20069;-81
2022/02/08 20:42:40;;;;;;;5.03;1.90;;;9.30;98.50;;;;;;4986578;28;20050;-83
2022/02/08 20:45:10;;;;;;;6.20;2.00;;;9.20;98.40;;;;;;4984430;28;20058;-83
2022/02/08 20:47:41;;;;;;;5.93;2.33;;;9.30;98.70;;;;;;4982256;28;20444;-85
2022/02/08 20:50:12;;;;;;;5.93;2.47;;;9.20;98.70;;;;;;4990105;28;20106;-83
2022/02/08 20:52:44;;;;;;;6.20;2.30;;;9.30;98.60;;;;;;4985021;28;20047;-81
2022/02/08 20:55:16;;;;;;;6.32;2.53;;;9.20;98.60;;;;;;4987548;28;20070;-83
2022/02/08 20:57:50;;;;;;;8.88;2.60;;;9.30;98.70;;;;;;4987272;28;20050;-85
2022/02/08 21:00:19;;;;;;;8.75;2.97;;;9.30;98.90;;;;;;4983132;28;20094;-85
2022/02/08 21:02:57;;;;;;;7.43;2.55;;;9.30;98.70;;;;;;4967722;29;20071;-85
2022/02/08 21:05:36;;;;;;;7.07;3.00;;;9.30;98.60;;;;;;4968916;28;20102;-85
2022/02/08 21:08:05;;;;;;;8.35;3.83;;;9.30;98.60;;;;;;4969071;28;20070;-85
2022/02/08 21:10:35;;;;;;;9.70;4.20;;;9.30;98.60;;;;;;4967254;28;20051;-86
2022/02/08 21:13:13;;;;;;;8.40;3.47;;;9.30;98.70;;;;;;4980937;28;20047;-85
2022/02/08 21:15:43;;;;;;;7.40;3.08;;;9.30;98.70;;;;;;4975131;28;20056;-87
2022/02/08 21:18:11;;;;;;;8.18;2.45;;;9.30;98.70;;;;;;4962483;29;20083;-85
2022/02/08 21:20:38;;;;;;;5.80;2.88;;;9.30;98.80;;;;;;4963519;29;20075;-85
2022/02/08 21:23:05;;;;;;;6.28;2.70;;;9.20;98.90;;;;;;4964910;29;20078;-85
2022/02/08 21:25:35;;;;;;;7.10;2.70;;;9.30;99.00;;;;;;4961474;29;20107;-86
2022/02/08 21:28:05;;;;;;;6.70;2.70;;;9.20;99.30;;;;;;4965933;28;20117;-84
2022/02/08 21:46:33;;;;;;;8.30;3.53;;;9.20;99.20;;;;;;4908590;29;20347;-85
2022/02/08 21:47:43;;;;;;;8.82;4.13;;;9.10;99.30;;;;;;4964885;29;20047;-85
2022/02/08 21:50:52;;;;;;;7.68;3.80;;;9.10;99.50;;;;;;4965127;28;20051;-84
2022/02/08 21:53:09;;;;;;;7.28;3.95;;;9.10;99.60;;;;;;4964517;28;20051;-83
2022/02/08 21:55:36;;;;;;;9.32;3.70;;;9.00;99.70;;;;;;4963525;29;20054;-83
2022/02/08 21:58:07;;;;;;;9.25;4.07;;;9.00;99.70;;;;;;4964800;28;20051;-84
2022/02/08 22:00:35;;;;;;;9.02;4.20;;;9.00;99.80;;;;;;4986500;28;20511;-84
2022/02/08 22:03:02;;;;;;;7.47;3.75;;;9.00;99.90;;;;;;4976405;28;20121;-84
2022/02/08 22:05:31;;;;;;;8.32;3.88;;;9.00;99.90;;;;;;5007804;28;20125;-84
2022/02/08 22:08:09;;;;;;;8.23;3.60;;;9.00;99.90;;;;;;4994310;28;20488;-85
2022/02/08 22:18:58;;;;;;;8.50;4.07;;;9.00;99.90;;;;;;4985378;28;20062;-84
2022/02/08 22:21:32;;;;;;;8.68;3.30;;;9.00;99.90;;;;;;4996795;28;20053;-85
2022/02/08 22:24:04;;;;;;;9.30;3.77;;;8.90;99.90;;;;;;5002909;28;20054;-84
2022/02/08 22:29:30;;;;;;;7.80;3.30;;;8.90;99.90;;;;;;4985041;28;20042;-85
2022/02/08 22:32:03;;;;;;;7.88;3.78;;;8.90;99.90;;;;;;4988865;28;20078;-85
2022/02/08 22:34:37;;;;;;;7.22;3.03;;;8.90;99.90;;;;;;4990891;28;20049;-86
2022/02/08 22:37:09;;;;;;;7.05;3.28;;;8.90;99.90;;;;;;4981370;28;20110;-85
2022/02/08 22:39:46;;;;;;;8.63;3.45;;;8.90;99.90;;;;;;5005827;28;20050;-84
2022/02/08 22:42:17;;;;;;;7.43;3.33;;;8.90;99.90;;;;;;4997797;28;20050;-85
2022/02/08 22:44:49;;;;;;;8.43;3.38;;;8.90;99.90;;;;;;5007939;28;20050;-86
2022/02/08 22:47:16;;;;;;;9.00;3.50;;;8.90;99.90;;;;;;5006879;28;20046;-86
2022/02/08 22:49:44;;;;;;;8.95;3.70;;;8.90;99.90;;;;;;5009687;28;20046;-85
2022/02/08 22:52:11;;;;;;;8.25;3.30;;;8.90;99.90;;;;;;5007544;28;20107;-85
2022/02/08 22:54:39;;;;;;;7.20;3.42;;;8.90;99.90;;;;;;4987159;28;20137;-84
2022/02/08 22:57:06;;;;;;;9.05;3.70;;;8.80;99.90;;;;;;4984088;28;20086;-84
2022/02/08 22:59:34;;;;;;;10.27;4.05;;;8.80;99.90;;;;;;4991656;28;20058;-86
2022/02/08 23:02:02;;;;;;;9.27;4.22;;;8.90;99.90;;;;;;4988848;28;20082;-86
2022/02/08 23:04:31;;;;;;;7.88;3.55;;;8.90;99.90;;;;;;5002067;28;20047;-85
2022/02/08 23:07:00;;;;;;;9.15;3.80;;;8.90;99.90;;;;;;4984724;28;20385;-84
2022/02/08 23:09:34;;;;;;;9.32;3.70;;;8.80;99.90;;;;;;5005153;28;20042;-85
2022/02/08 23:12:26;;;;;;;8.18;3.80;;;8.80;99.90;;;;;;5008187;28;20480;-84
2022/02/08 23:15:01;;;;;;;6.72;3.33;;;8.80;99.90;;;;;;5000881;28;20053;-84
2022/02/08 23:36:58;;;;;;;9.23;2.95;;;8.70;99.90;;;;;;4982866;28;20061;-83
2022/02/08 23:39:28;;;;;;;8.23;3.65;;;8.70;99.90;;;;;;4984243;28;20050;-84
2022/02/08 23:41:58;;;;;;;6.88;3.20;;;8.70;99.90;;;;;;4981763;28;20050;-83
2022/02/08 23:44:27;;;;;;;7.53;3.13;;;8.70;99.90;;;;;;4980432;28;20125;-85
2022/02/08 23:46:54;;;;;;;8.00;3.70;;;8.70;99.90;;;;;;4967461;28;20061;-83
2022/02/08 23:49:27;;;;;;;8.18;3.20;;;8.70;99.90;;;;;;4985273;28;20051;-85
2022/02/08 23:51:57;;;;;;;7.72;3.05;;;8.70;99.90;;;;;;4992227;28;20053;-83
2022/02/08 23:54:27;;;;;;;8.80;3.40;;;8.70;99.90;;;;;;4999358;28;20049;-84
2022/02/08 23:56:58;;;;;;;9.00;3.65;;;8.70;99.90;;;;;;5006782;28;20058;-83
2022/02/08 23:59:32;;;;;;;8.93;3.75;;;8.70;99.90;;;;;;5006007;28;20113;-86
